sensor_id;sensor_type;location;lat;lon;timestamp;P1;durP1;ratioP1;P2;durP2;ratioP2
17441;SDS011;8838;50.144;8.176;2022-12-07T00:01:29;29.03;;;16.87;;
17441;SDS011;8838;50.144;8.176;2022-12-07T00:03:57;29.80;;;16.03;;
17441;SDS011;8838;50.144;8.176;2022-12-07T00:06:29;27.13;;;16.37;;
17441;SDS011;8838;50.144;8.176;2022-12-07T00:08:57;25.90;;;15.37;;
17441;SDS011;8838;50.144;8.176;2022-12-07T00:11:25;28.40;;;15.97;;
17441;SDS011;8838;50.144;8.176;2022-12-07T00:13:52;25.60;;;15.53;;
17441;SDS011;8838;50.144;8.176;2022-12-07T00:16:21;27.00;;;15.17;;
17441;SDS011;8838;50.144;8.176;2022-12-07T00:18:50;25.40;;;14.30;;
17441;SDS011;8838;50.144;8.176;2022-12-07T00:21:20;25.40;;;15.00;;
17441;SDS011;8838;50.144;8.176;2022-12-07T00:23:48;24.10;;;15.03;;
17441;SDS011;8838;50.144;8.176;2022-12-07T00:26:17;25.93;;;15.03;;
17441;SDS011;8838;50.144;8.176;2022-12-07T00:28:46;23.07;;;12.37;;
17441;SDS011;8838;50.144;8.176;2022-12-07T00:31:15;24.90;;;12.60;;
17441;SDS011;8838;50.144;8.176;2022-12-07T00:33:43;24.13;;;13.33;;
17441;SDS011;8838;50.144;8.176;2022-12-07T00:36:11;22.57;;;13.03;;
17441;SDS011;8838;50.144;8.176;2022-12-07T00:38:41;22.63;;;13.07;;
17441;SDS011;8838;50.144;8.176;2022-12-07T00:41:11;23.50;;;13.33;;
17441;SDS011;8838;50.144;8.176;2022-12-07T00:43:39;24.13;;;14.40;;
17441;SDS011;8838;50.144;8.176;2022-12-07T00:46:14;24.73;;;14.30;;
17441;SDS011;8838;50.144;8.176;2022-12-07T00:48:44;26.77;;;15.00;;
17441;SDS011;8838;50.144;8.176;2022-12-07T00:51:15;24.33;;;13.93;;
17441;SDS011;8838;50.144;8.176;2022-12-07T00:53:43;22.80;;;13.47;;
17441;SDS011;8838;50.144;8.176;2022-12-07T00:56:11;22.97;;;14.17;;
17441;SDS011;8838;50.144;8.176;2022-12-07T00:58:39;21.73;;;13.27;;
17441;SDS011;8838;50.144;8.176;2022-12-07T01:01:06;21.03;;;12.47;;
17441;SDS011;8838;50.144;8.176;2022-12-07T01:03:36;21.87;;;12.73;;
17441;SDS011;8838;50.144;8.176;2022-12-07T01:06:03;21.03;;;11.67;;
17441;SDS011;8838;50.144;8.176;2022-12-07T01:08:30;23.30;;;12.37;;
17441;SDS011;8838;50.144;8.176;2022-12-07T01:10:58;22.67;;;12.83;;
17441;SDS011;8838;50.144;8.176;2022-12-07T01:13:26;21.07;;;12.23;;
17441;SDS011;8838;50.144;8.176;2022-12-07T01:15:55;21.83;;;11.77;;
17441;SDS011;8838;50.144;8.176;2022-12-07T01:18:23;19.47;;;11.20;;
17441;SDS011;8838;50.144;8.176;2022-12-07T01:20:58;20.10;;;11.90;;
17441;SDS011;8838;50.144;8.176;2022-12-07T01:23:26;20.10;;;11.37;;
17441;SDS011;8838;50.144;8.176;2022-12-07T01:25:54;17.63;;;10.27;;
17441;SDS011;8838;50.144;8.176;2022-12-07T01:28:21;17.90;;;10.63;;
17441;SDS011;8838;50.144;8.176;2022-12-07T01:30:54;19.20;;;10.83;;
17441;SDS011;8838;50.144;8.176;2022-12-07T01:33:22;16.20;;;10.10;;
17441;SDS011;8838;50.144;8.176;2022-12-07T01:35:49;19.70;;;10.53;;
17441;SDS011;8838;50.144;8.176;2022-12-07T01:38:17;19.67;;;10.40;;
17441;SDS011;8838;50.144;8.176;2022-12-07T01:40:44;17.93;;;9.77;;
17441;SDS011;8838;50.144;8.176;2022-12-07T01:43:14;14.03;;;8.63;;
17441;SDS011;8838;50.144;8.176;2022-12-07T01:45:44;15.67;;;9.03;;
17441;SDS011;8838;50.144;8.176;2022-12-07T01:48:12;16.97;;;9.73;;
17441;SDS011;8838;50.144;8.176;2022-12-07T01:50:42;15.33;;;8.83;;
17441;SDS011;8838;50.144;8.176;2022-12-07T01:53:10;14.60;;;9.27;;
17441;SDS011;8838;50.144;8.176;2022-12-07T01:55:41;16.20;;;8.80;;
17441;SDS011;8838;50.144;8.176;2022-12-07T01:58:11;20.23;;;9.77;;
17441;SDS011;8838;50.144;8.176;2022-12-07T02:00:39;14.57;;;9.23;;
17441;SDS011;8838;50.144;8.176;2022-12-07T02:03:08;15.10;;;8.37;;
17441;SDS011;8838;50.144;8.176;2022-12-07T02:05:40;12.67;;;7.90;;
17441;SDS011;8838;50.144;8.176;2022-12-07T02:08:08;13.97;;;8.13;;
17441;SDS011;8838;50.144;8.176;2022-12-07T02:10:39;16.17;;;7.90;;
17441;SDS011;8838;50.144;8.176;2022-12-07T02:13:08;15.70;;;7.90;;
17441;SDS011;8838;50.144;8.176;2022-12-07T02:15:44;12.60;;;7.73;;
17441;SDS011;8838;50.144;8.176;2022-12-07T02:18:19;15.07;;;8.10;;
17441;SDS011;8838;50.144;8.176;2022-12-07T02:21:01;14.73;;;8.40;;
17441;SDS011;8838;50.144;8.176;2022-12-07T02:24:10;13.07;;;7.97;;
17441;SDS011;8838;50.144;8.176;2022-12-07T02:26:50;12.57;;;7.70;;
17441;SDS011;8838;50.144;8.176;2022-12-07T02:29:33;12.73;;;7.53;;
17441;SDS011;8838;50.144;8.176;2022-12-07T02:32:04;12.87;;;8.07;;
17441;SDS011;8838;50.144;8.176;2022-12-07T02:34:39;13.50;;;7.57;;
17441;SDS011;8838;50.144;8.176;2022-12-07T02:37:15;14.20;;;7.50;;
17441;SDS011;8838;50.144;8.176;2022-12-07T02:39:50;12.00;;;7.80;;
17441;SDS011;8838;50.144;8.176;2022-12-07T02:42:23;11.43;;;7.40;;
17441;SDS011;8838;50.144;8.176;2022-12-07T02:44:55;13.53;;;7.47;;
17441;SDS011;8838;50.144;8.176;2022-12-07T02:47:22;12.47;;;8.27;;
17441;SDS011;8838;50.144;8.176;2022-12-07T02:49:52;12.37;;;8.00;;
17441;SDS011;8838;50.144;8.176;2022-12-07T02:52:19;15.13;;;8.03;;
17441;SDS011;8838;50.144;8.176;2022-12-07T02:54:46;15.73;;;8.70;;
17441;SDS011;8838;50.144;8.176;2022-12-07T02:57:28;14.77;;;8.80;;
17441;SDS011;8838;50.144;8.176;2022-12-07T03:00:09;14.30;;;8.90;;
17441;SDS011;8838;50.144;8.176;2022-12-07T03:02:42;14.93;;;9.53;;
17441;SDS011;8838;50.144;8.176;2022-12-07T03:05:27;17.73;;;9.37;;
17441;SDS011;8838;50.144;8.176;2022-12-07T03:08:13;20.17;;;9.97;;
17441;SDS011;8838;50.144;8.176;2022-12-07T03:10:48;16.30;;;9.57;;
17441;SDS011;8838;50.144;8.176;2022-12-07T03:13:24;14.80;;;9.70;;
17441;SDS011;8838;50.144;8.176;2022-12-07T03:15:57;19.50;;;10.83;;
17441;SDS011;8838;50.144;8.176;2022-12-07T03:18:29;16.93;;;10.07;;
17441;SDS011;8838;50.144;8.176;2022-12-07T03:21:01;17.27;;;9.80;;
17441;SDS011;8838;50.144;8.176;2022-12-07T03:23:31;18.07;;;11.03;;
17441;SDS011;8838;50.144;8.176;2022-12-07T03:26:01;19.47;;;10.87;;
17441;SDS011;8838;50.144;8.176;2022-12-07T03:28:32;16.97;;;10.23;;
17441;SDS011;8838;50.144;8.176;2022-12-07T03:31:07;18.20;;;10.43;;
17441;SDS011;8838;50.144;8.176;2022-12-07T03:33:40;16.13;;;10.50;;
17441;SDS011;8838;50.144;8.176;2022-12-07T03:36:14;18.27;;;10.50;;
17441;SDS011;8838;50.144;8.176;2022-12-07T03:38:49;18.10;;;11.40;;
17441;SDS011;8838;50.144;8.176;2022-12-07T03:41:22;17.93;;;11.57;;
17441;SDS011;8838;50.144;8.176;2022-12-07T03:43:50;19.03;;;11.03;;
17441;SDS011;8838;50.144;8.176;2022-12-07T03:46:24;17.93;;;11.53;;
17441;SDS011;8838;50.144;8.176;2022-12-07T03:49:02;18.43;;;11.77;;
17441;SDS011;8838;50.144;8.176;2022-12-07T03:51:36;21.70;;;12.60;;
17441;SDS011;8838;50.144;8.176;2022-12-07T03:54:10;19.93;;;11.30;;
17441;SDS011;8838;50.144;8.176;2022-12-07T03:56:40;19.77;;;12.03;;
17441;SDS011;8838;50.144;8.176;2022-12-07T03:59:09;20.83;;;11.90;;
17441;SDS011;8838;50.144;8.176;2022-12-07T04:01:39;20.27;;;12.53;;
17441;SDS011;8838;50.144;8.176;2022-12-07T04:04:08;18.63;;;11.77;;
17441;SDS011;8838;50.144;8.176;2022-12-07T04:06:35;19.80;;;12.17;;
17441;SDS011;8838;50.144;8.176;2022-12-07T04:09:03;21.07;;;12.90;;
17441;SDS011;8838;50.144;8.176;2022-12-07T04:11:29;21.70;;;13.60;;
17441;SDS011;8838;50.144;8.176;2022-12-07T04:13:58;21.20;;;12.80;;
17441;SDS011;8838;50.144;8.176;2022-12-07T04:16:44;22.83;;;13.53;;
17441;SDS011;8838;50.144;8.176;2022-12-07T04:19:11;23.23;;;13.50;;
17441;SDS011;8838;50.144;8.176;2022-12-07T04:21:38;20.13;;;12.50;;
17441;SDS011;8838;50.144;8.176;2022-12-07T04:24:05;18.43;;;12.17;;
17441;SDS011;8838;50.144;8.176;2022-12-07T04:26:34;19.97;;;12.63;;
17441;SDS011;8838;50.144;8.176;2022-12-07T04:29:02;18.03;;;12.97;;
17441;SDS011;8838;50.144;8.176;2022-12-07T04:31:29;22.27;;;13.60;;
17441;SDS011;8838;50.144;8.176;2022-12-07T04:33:57;22.30;;;13.20;;
17441;SDS011;8838;50.144;8.176;2022-12-07T04:36:24;23.03;;;14.03;;
17441;SDS011;8838;50.144;8.176;2022-12-07T04:38:52;25.43;;;15.40;;
17441;SDS011;8838;50.144;8.176;2022-12-07T04:41:20;27.33;;;15.60;;
17441;SDS011;8838;50.144;8.176;2022-12-07T04:43:51;26.47;;;15.67;;
17441;SDS011;8838;50.144;8.176;2022-12-07T04:46:19;24.83;;;15.23;;
17441;SDS011;8838;50.144;8.176;2022-12-07T04:48:46;22.77;;;14.90;;
17441;SDS011;8838;50.144;8.176;2022-12-07T04:51:14;25.90;;;15.47;;
17441;SDS011;8838;50.144;8.176;2022-12-07T04:53:44;25.70;;;15.07;;
17441;SDS011;8838;50.144;8.176;2022-12-07T04:56:11;23.50;;;14.43;;
17441;SDS011;8838;50.144;8.176;2022-12-07T04:58:38;24.23;;;15.00;;
17441;SDS011;8838;50.144;8.176;2022-12-07T05:01:05;23.77;;;14.83;;
17441;SDS011;8838;50.144;8.176;2022-12-07T05:03:32;26.83;;;13.83;;
17441;SDS011;8838;50.144;8.176;2022-12-07T05:05:59;28.30;;;15.80;;
17441;SDS011;8838;50.144;8.176;2022-12-07T05:08:28;24.87;;;14.47;;
17441;SDS011;8838;50.144;8.176;2022-12-07T05:10:54;23.67;;;14.50;;
17441;SDS011;8838;50.144;8.176;2022-12-07T05:13:21;28.73;;;14.97;;
17441;SDS011;8838;50.144;8.176;2022-12-07T05:15:48;27.43;;;15.63;;
17441;SDS011;8838;50.144;8.176;2022-12-07T05:18:16;27.97;;;15.23;;
17441;SDS011;8838;50.144;8.176;2022-12-07T05:20:43;28.07;;;15.90;;
17441;SDS011;8838;50.144;8.176;2022-12-07T05:23:10;23.67;;;14.73;;
17441;SDS011;8838;50.144;8.176;2022-12-07T05:25:39;25.77;;;15.33;;
17441;SDS011;8838;50.144;8.176;2022-12-07T05:28:06;23.27;;;15.17;;
17441;SDS011;8838;50.144;8.176;2022-12-07T05:30:33;26.50;;;16.27;;
17441;SDS011;8838;50.144;8.176;2022-12-07T05:33:00;24.83;;;15.33;;
17441;SDS011;8838;50.144;8.176;2022-12-07T05:35:28;23.93;;;15.00;;
17441;SDS011;8838;50.144;8.176;2022-12-07T05:37:55;26.57;;;15.07;;
17441;SDS011;8838;50.144;8.176;2022-12-07T05:40:23;25.37;;;14.90;;
17441;SDS011;8838;50.144;8.176;2022-12-07T05:42:51;22.07;;;13.43;;
17441;SDS011;8838;50.144;8.176;2022-12-07T05:45:18;25.17;;;14.40;;
17441;SDS011;8838;50.144;8.176;2022-12-07T05:47:45;23.20;;;14.90;;
17441;SDS011;8838;50.144;8.176;2022-12-07T05:50:12;24.37;;;14.73;;
17441;SDS011;8838;50.144;8.176;2022-12-07T05:52:39;25.97;;;15.40;;
17441;SDS011;8838;50.144;8.176;2022-12-07T05:55:06;27.80;;;15.30;;
17441;SDS011;8838;50.144;8.176;2022-12-07T05:57:33;24.67;;;14.83;;
17441;SDS011;8838;50.144;8.176;2022-12-07T06:00:02;26.40;;;14.97;;
17441;SDS011;8838;50.144;8.176;2022-12-07T06:02:28;24.47;;;15.50;;
17441;SDS011;8838;50.144;8.176;2022-12-07T06:04:55;25.60;;;14.83;;
17441;SDS011;8838;50.144;8.176;2022-12-07T06:07:24;29.03;;;13.93;;
17441;SDS011;8838;50.144;8.176;2022-12-07T06:09:51;20.60;;;12.63;;
17441;SDS011;8838;50.144;8.176;2022-12-07T06:12:18;22.07;;;13.57;;
17441;SDS011;8838;50.144;8.176;2022-12-07T06:14:58;21.90;;;13.47;;
17441;SDS011;8838;50.144;8.176;2022-12-07T06:17:27;20.73;;;13.37;;
17441;SDS011;8838;50.144;8.176;2022-12-07T06:19:53;21.77;;;12.93;;
17441;SDS011;8838;50.144;8.176;2022-12-07T06:22:20;18.73;;;11.83;;
17441;SDS011;8838;50.144;8.176;2022-12-07T06:24:48;22.27;;;12.73;;
17441;SDS011;8838;50.144;8.176;2022-12-07T06:27:15;19.33;;;12.33;;
17441;SDS011;8838;50.144;8.176;2022-12-07T06:29:42;24.03;;;12.93;;
17441;SDS011;8838;50.144;8.176;2022-12-07T06:32:09;18.20;;;11.67;;
17441;SDS011;8838;50.144;8.176;2022-12-07T06:34:38;18.03;;;11.23;;
17441;SDS011;8838;50.144;8.176;2022-12-07T06:37:05;21.03;;;12.00;;
17441;SDS011;8838;50.144;8.176;2022-12-07T06:39:32;19.83;;;11.57;;
17441;SDS011;8838;50.144;8.176;2022-12-07T06:41:59;17.73;;;10.47;;
17441;SDS011;8838;50.144;8.176;2022-12-07T06:44:26;20.27;;;10.77;;
17441;SDS011;8838;50.144;8.176;2022-12-07T06:46:54;18.70;;;10.93;;
17441;SDS011;8838;50.144;8.176;2022-12-07T06:49:21;17.17;;;10.97;;
17441;SDS011;8838;50.144;8.176;2022-12-07T06:51:49;16.73;;;10.47;;
17441;SDS011;8838;50.144;8.176;2022-12-07T06:54:16;18.23;;;10.57;;
17441;SDS011;8838;50.144;8.176;2022-12-07T06:56:43;15.33;;;9.90;;
17441;SDS011;8838;50.144;8.176;2022-12-07T06:59:10;16.93;;;10.07;;
17441;SDS011;8838;50.144;8.176;2022-12-07T07:01:37;15.17;;;10.00;;
17441;SDS011;8838;50.144;8.176;2022-12-07T07:04:04;14.57;;;9.43;;
17441;SDS011;8838;50.144;8.176;2022-12-07T07:06:31;11.80;;;8.37;;
17441;SDS011;8838;50.144;8.176;2022-12-07T07:09:00;12.83;;;8.80;;
17441;SDS011;8838;50.144;8.176;2022-12-07T07:11:27;10.77;;;7.70;;
17441;SDS011;8838;50.144;8.176;2022-12-07T07:13:54;11.87;;;7.70;;
17441;SDS011;8838;50.144;8.176;2022-12-07T07:16:27;12.43;;;8.37;;
17441;SDS011;8838;50.144;8.176;2022-12-07T07:18:54;13.47;;;7.97;;
17441;SDS011;8838;50.144;8.176;2022-12-07T07:21:21;11.87;;;8.60;;
17441;SDS011;8838;50.144;8.176;2022-12-07T07:23:47;15.50;;;9.90;;
17441;SDS011;8838;50.144;8.176;2022-12-07T07:26:16;12.17;;;8.93;;
17441;SDS011;8838;50.144;8.176;2022-12-07T07:28:42;13.07;;;9.13;;
17441;SDS011;8838;50.144;8.176;2022-12-07T07:31:10;13.40;;;8.83;;
17441;SDS011;8838;50.144;8.176;2022-12-07T07:33:37;13.83;;;9.53;;
17441;SDS011;8838;50.144;8.176;2022-12-07T07:36:04;13.57;;;9.33;;
17441;SDS011;8838;50.144;8.176;2022-12-07T07:38:31;15.83;;;9.93;;
17441;SDS011;8838;50.144;8.176;2022-12-07T07:40:58;13.23;;;9.00;;
17441;SDS011;8838;50.144;8.176;2022-12-07T07:43:26;16.50;;;9.50;;
17441;SDS011;8838;50.144;8.176;2022-12-07T07:45:53;14.47;;;10.30;;
17441;SDS011;8838;50.144;8.176;2022-12-07T07:48:20;14.57;;;10.57;;
17441;SDS011;8838;50.144;8.176;2022-12-07T07:50:47;13.33;;;9.37;;
17441;SDS011;8838;50.144;8.176;2022-12-07T07:53:14;13.67;;;8.93;;
17441;SDS011;8838;50.144;8.176;2022-12-07T07:55:41;14.27;;;9.07;;
17441;SDS011;8838;50.144;8.176;2022-12-07T07:58:08;13.23;;;8.90;;
17441;SDS011;8838;50.144;8.176;2022-12-07T08:00:36;14.70;;;9.03;;
17441;SDS011;8838;50.144;8.176;2022-12-07T08:03:03;13.30;;;9.60;;
17441;SDS011;8838;50.144;8.176;2022-12-07T08:05:29;14.07;;;8.87;;
17441;SDS011;8838;50.144;8.176;2022-12-07T08:07:57;13.70;;;8.80;;
17441;SDS011;8838;50.144;8.176;2022-12-07T08:10:24;14.00;;;9.00;;
17441;SDS011;8838;50.144;8.176;2022-12-07T08:12:51;13.83;;;9.07;;
17441;SDS011;8838;50.144;8.176;2022-12-07T08:15:37;15.63;;;9.33;;
17441;SDS011;8838;50.144;8.176;2022-12-07T08:18:05;13.67;;;8.93;;
17441;SDS011;8838;50.144;8.176;2022-12-07T08:20:32;15.60;;;9.95;;
17441;SDS011;8838;50.144;8.176;2022-12-07T08:23:00;16.37;;;10.23;;
17441;SDS011;8838;50.144;8.176;2022-12-07T08:25:27;21.60;;;10.60;;
17441;SDS011;8838;50.144;8.176;2022-12-07T08:27:54;14.43;;;9.70;;
17441;SDS011;8838;50.144;8.176;2022-12-07T08:30:21;17.27;;;10.70;;
17441;SDS011;8838;50.144;8.176;2022-12-07T08:32:49;17.93;;;10.67;;
17441;SDS011;8838;50.144;8.176;2022-12-07T08:35:16;18.07;;;10.20;;
17441;SDS011;8838;50.144;8.176;2022-12-07T08:37:43;18.87;;;10.33;;
17441;SDS011;8838;50.144;8.176;2022-12-07T08:40:11;17.50;;;10.23;;
17441;SDS011;8838;50.144;8.176;2022-12-07T08:42:40;16.47;;;9.83;;
17441;SDS011;8838;50.144;8.176;2022-12-07T08:45:08;13.63;;;9.20;;
17441;SDS011;8838;50.144;8.176;2022-12-07T08:47:36;15.57;;;9.40;;
17441;SDS011;8838;50.144;8.176;2022-12-07T08:50:07;16.40;;;9.23;;
17441;SDS011;8838;50.144;8.176;2022-12-07T08:52:37;15.90;;;10.68;;
17441;SDS011;8838;50.144;8.176;2022-12-07T08:55:06;15.03;;;9.07;;
17441;SDS011;8838;50.144;8.176;2022-12-07T08:57:35;14.53;;;9.83;;
17441;SDS011;8838;50.144;8.176;2022-12-07T09:00:03;14.27;;;8.33;;
17441;SDS011;8838;50.144;8.176;2022-12-07T09:02:31;14.53;;;8.97;;
17441;SDS011;8838;50.144;8.176;2022-12-07T09:04:58;11.40;;;8.13;;
17441;SDS011;8838;50.144;8.176;2022-12-07T09:07:26;11.63;;;7.10;;
17441;SDS011;8838;50.144;8.176;2022-12-07T09:09:53;11.93;;;7.40;;
17441;SDS011;8838;50.144;8.176;2022-12-07T09:12:21;10.17;;;7.50;;
17441;SDS011;8838;50.144;8.176;2022-12-07T09:14:50;9.77;;;7.37;;
17441;SDS011;8838;50.144;8.176;2022-12-07T09:17:17;11.07;;;7.83;;
17441;SDS011;8838;50.144;8.176;2022-12-07T09:19:44;13.67;;;7.50;;
17441;SDS011;8838;50.144;8.176;2022-12-07T09:22:11;12.30;;;7.30;;
17441;SDS011;8838;50.144;8.176;2022-12-07T09:24:39;13.10;;;7.73;;
17441;SDS011;8838;50.144;8.176;2022-12-07T09:27:06;11.23;;;7.50;;
17441;SDS011;8838;50.144;8.176;2022-12-07T09:29:33;11.93;;;8.00;;
17441;SDS011;8838;50.144;8.176;2022-12-07T09:31:59;13.20;;;8.20;;
17441;SDS011;8838;50.144;8.176;2022-12-07T09:34:29;10.13;;;7.50;;
17441;SDS011;8838;50.144;8.176;2022-12-07T09:36:56;11.23;;;7.80;;
17441;SDS011;8838;50.144;8.176;2022-12-07T09:39:23;14.10;;;7.47;;
17441;SDS011;8838;50.144;8.176;2022-12-07T09:41:53;13.63;;;8.13;;
17441;SDS011;8838;50.144;8.176;2022-12-07T09:44:21;12.43;;;7.70;;
17441;SDS011;8838;50.144;8.176;2022-12-07T09:46:50;13.10;;;8.07;;
17441;SDS011;8838;50.144;8.176;2022-12-07T09:49:18;13.27;;;8.10;;
17441;SDS011;8838;50.144;8.176;2022-12-07T09:51:46;14.90;;;7.77;;
17441;SDS011;8838;50.144;8.176;2022-12-07T09:54:14;12.77;;;7.50;;
17441;SDS011;8838;50.144;8.176;2022-12-07T09:56:42;13.03;;;7.87;;
17441;SDS011;8838;50.144;8.176;2022-12-07T09:59:13;10.47;;;7.27;;
17441;SDS011;8838;50.144;8.176;2022-12-07T10:01:45;10.20;;;7.07;;
17441;SDS011;8838;50.144;8.176;2022-12-07T10:04:15;13.00;;;7.63;;
17441;SDS011;8838;50.144;8.176;2022-12-07T10:06:44;10.97;;;6.60;;
17441;SDS011;8838;50.144;8.176;2022-12-07T10:09:13;13.70;;;6.70;;
17441;SDS011;8838;50.144;8.176;2022-12-07T10:12:04;9.20;;;5.90;;
17441;SDS011;8838;50.144;8.176;2022-12-07T10:14:35;10.87;;;5.40;;
17441;SDS011;8838;50.144;8.176;2022-12-07T10:17:14;9.03;;;5.57;;
17441;SDS011;8838;50.144;8.176;2022-12-07T10:20:08;11.30;;;5.80;;
17441;SDS011;8838;50.144;8.176;2022-12-07T10:22:44;8.43;;;4.77;;
17441;SDS011;8838;50.144;8.176;2022-12-07T10:25:21;6.73;;;4.47;;
17441;SDS011;8838;50.144;8.176;2022-12-07T10:27:57;7.53;;;4.87;;
17441;SDS011;8838;50.144;8.176;2022-12-07T10:30:26;8.50;;;4.60;;
17441;SDS011;8838;50.144;8.176;2022-12-07T10:32:52;6.33;;;4.27;;
17441;SDS011;8838;50.144;8.176;2022-12-07T10:35:21;8.20;;;4.30;;
17441;SDS011;8838;50.144;8.176;2022-12-07T10:37:50;10.37;;;4.13;;
17441;SDS011;8838;50.144;8.176;2022-12-07T10:40:24;7.33;;;4.00;;
17441;SDS011;8838;50.144;8.176;2022-12-07T10:43:03;8.93;;;4.37;;
17441;SDS011;8838;50.144;8.176;2022-12-07T10:45:34;7.70;;;4.30;;
17441;SDS011;8838;50.144;8.176;2022-12-07T10:48:03;9.47;;;3.97;;
17441;SDS011;8838;50.144;8.176;2022-12-07T10:50:39;6.47;;;3.63;;
17441;SDS011;8838;50.144;8.176;2022-12-07T10:53:21;10.20;;;3.73;;
17441;SDS011;8838;50.144;8.176;2022-12-07T10:56:02;6.17;;;3.53;;
17441;SDS011;8838;50.144;8.176;2022-12-07T10:58:48;5.53;;;3.27;;
17441;SDS011;8838;50.144;8.176;2022-12-07T11:01:28;7.13;;;3.20;;
17441;SDS011;8838;50.144;8.176;2022-12-07T11:04:12;8.70;;;2.90;;
17441;SDS011;8838;50.144;8.176;2022-12-07T11:06:49;6.93;;;3.73;;
17441;SDS011;8838;50.144;8.176;2022-12-07T11:12:35;9.70;;;3.70;;
17441;SDS011;8838;50.144;8.176;2022-12-07T11:15:16;7.10;;;3.67;;
17441;SDS011;8838;50.144;8.176;2022-12-07T11:17:51;9.43;;;3.20;;
17441;SDS011;8838;50.144;8.176;2022-12-07T11:20:29;8.07;;;3.40;;
17441;SDS011;8838;50.144;8.176;2022-12-07T11:23:11;5.37;;;3.67;;
17441;SDS011;8838;50.144;8.176;2022-12-07T11:25:49;9.77;;;3.97;;
17441;SDS011;8838;50.144;8.176;2022-12-07T11:28:24;5.97;;;3.27;;
17441;SDS011;8838;50.144;8.176;2022-12-07T11:31:03;5.53;;;2.57;;
17441;SDS011;8838;50.144;8.176;2022-12-07T11:33:41;6.03;;;2.43;;
17441;SDS011;8838;50.144;8.176;2022-12-07T11:36:17;5.83;;;3.23;;
17441;SDS011;8838;50.144;8.176;2022-12-07T11:39:00;4.13;;;2.60;;
17441;SDS011;8838;50.144;8.176;2022-12-07T11:41:32;5.20;;;2.50;;
17441;SDS011;8838;50.144;8.176;2022-12-07T11:44:05;6.13;;;2.93;;
17441;SDS011;8838;50.144;8.176;2022-12-07T11:46:39;4.00;;;2.30;;
17441;SDS011;8838;50.144;8.176;2022-12-07T11:49:16;6.60;;;2.40;;
17441;SDS011;8838;50.144;8.176;2022-12-07T11:51:51;4.93;;;2.60;;
17441;SDS011;8838;50.144;8.176;2022-12-07T11:54:21;3.93;;;2.43;;
17441;SDS011;8838;50.144;8.176;2022-12-07T11:56:51;3.23;;;2.43;;
17441;SDS011;8838;50.144;8.176;2022-12-07T11:59:23;2.70;;;2.30;;
17441;SDS011;8838;50.144;8.176;2022-12-07T12:01:56;4.40;;;2.77;;
17441;SDS011;8838;50.144;8.176;2022-12-07T12:04:34;6.00;;;2.80;;
17441;SDS011;8838;50.144;8.176;2022-12-07T12:07:15;9.97;;;3.07;;
17441;SDS011;8838;50.144;8.176;2022-12-07T12:09:47;3.70;;;2.90;;
17441;SDS011;8838;50.144;8.176;2022-12-07T12:15:16;7.77;;;3.27;;
17441;SDS011;8838;50.144;8.176;2022-12-07T12:17:54;5.83;;;3.40;;
17441;SDS011;8838;50.144;8.176;2022-12-07T12:20:37;6.40;;;2.70;;
17441;SDS011;8838;50.144;8.176;2022-12-07T12:23:10;5.13;;;2.63;;
17441;SDS011;8838;50.144;8.176;2022-12-07T12:25:41;7.10;;;2.90;;
17441;SDS011;8838;50.144;8.176;2022-12-07T12:28:19;6.47;;;3.20;;
17441;SDS011;8838;50.144;8.176;2022-12-07T12:31:06;7.23;;;3.03;;
17441;SDS011;8838;50.144;8.176;2022-12-07T12:33:37;6.57;;;3.30;;
17441;SDS011;8838;50.144;8.176;2022-12-07T12:36:26;7.97;;;3.33;;
17441;SDS011;8838;50.144;8.176;2022-12-07T12:39:10;8.83;;;3.40;;
17441;SDS011;8838;50.144;8.176;2022-12-07T12:41:52;7.67;;;3.20;;
17441;SDS011;8838;50.144;8.176;2022-12-07T12:47:40;5.73;;;2.50;;
17441;SDS011;8838;50.144;8.176;2022-12-07T12:50:16;6.93;;;2.80;;
17441;SDS011;8838;50.144;8.176;2022-12-07T12:52:48;9.17;;;2.80;;
17441;SDS011;8838;50.144;8.176;2022-12-07T12:55:18;6.30;;;3.00;;
17441;SDS011;8838;50.144;8.176;2022-12-07T13:04:21;6.30;;;3.10;;
17441;SDS011;8838;50.144;8.176;2022-12-07T13:07:07;5.50;;;2.63;;
17441;SDS011;8838;50.144;8.176;2022-12-07T13:09:42;5.93;;;3.00;;
17441;SDS011;8838;50.144;8.176;2022-12-07T13:12:12;9.60;;;2.80;;
17441;SDS011;8838;50.144;8.176;2022-12-07T13:14:57;9.53;;;3.20;;
17441;SDS011;8838;50.144;8.176;2022-12-07T13:20:40;6.53;;;3.20;;
17441;SDS011;8838;50.144;8.176;2022-12-07T13:23:10;9.33;;;3.17;;
17441;SDS011;8838;50.144;8.176;2022-12-07T13:25:46;5.67;;;3.30;;
17441;SDS011;8838;50.144;8.176;2022-12-07T13:28:18;6.27;;;2.60;;
17441;SDS011;8838;50.144;8.176;2022-12-07T13:30:57;7.73;;;2.60;;
17441;SDS011;8838;50.144;8.176;2022-12-07T13:33:35;6.17;;;2.20;;
17441;SDS011;8838;50.144;8.176;2022-12-07T13:36:02;6.53;;;2.30;;
17441;SDS011;8838;50.144;8.176;2022-12-07T13:38:31;8.40;;;2.83;;
17441;SDS011;8838;50.144;8.176;2022-12-07T13:41:10;4.50;;;2.30;;
17441;SDS011;8838;50.144;8.176;2022-12-07T13:43:43;6.50;;;2.10;;
17441;SDS011;8838;50.144;8.176;2022-12-07T13:46:31;3.30;;;1.50;;
17441;SDS011;8838;50.144;8.176;2022-12-07T13:49:14;5.43;;;1.40;;
17441;SDS011;8838;50.144;8.176;2022-12-07T13:51:50;5.30;;;1.73;;
17441;SDS011;8838;50.144;8.176;2022-12-07T13:54:18;8.40;;;1.63;;
17441;SDS011;8838;50.144;8.176;2022-12-07T13:56:49;6.30;;;1.90;;
17441;SDS011;8838;50.144;8.176;2022-12-07T13:59:20;3.37;;;1.63;;
17441;SDS011;8838;50.144;8.176;2022-12-07T14:01:49;5.50;;;1.80;;
17441;SDS011;8838;50.144;8.176;2022-12-07T14:04:18;4.23;;;1.43;;
17441;SDS011;8838;50.144;8.176;2022-12-07T14:06:55;3.97;;;1.67;;
17441;SDS011;8838;50.144;8.176;2022-12-07T14:09:23;5.57;;;1.90;;
17441;SDS011;8838;50.144;8.176;2022-12-07T14:11:54;3.23;;;1.60;;
17441;SDS011;8838;50.144;8.176;2022-12-07T14:14:23;7.20;;;2.63;;
17441;SDS011;8838;50.144;8.176;2022-12-07T14:16:56;4.77;;;2.20;;
17441;SDS011;8838;50.144;8.176;2022-12-07T14:19:40;4.60;;;2.50;;
17441;SDS011;8838;50.144;8.176;2022-12-07T14:22:15;7.57;;;4.37;;
17441;SDS011;8838;50.144;8.176;2022-12-07T14:24:58;14.30;;;10.30;;
17441;SDS011;8838;50.144;8.176;2022-12-07T14:27:30;34.33;;;22.90;;
17441;SDS011;8838;50.144;8.176;2022-12-07T14:29:59;27.97;;;16.80;;
17441;SDS011;8838;50.144;8.176;2022-12-07T14:32:28;50.83;;;30.33;;
17441;SDS011;8838;50.144;8.176;2022-12-07T14:34:57;6.60;;;3.03;;
17441;SDS011;8838;50.144;8.176;2022-12-07T14:37:26;9.07;;;3.27;;
17441;SDS011;8838;50.144;8.176;2022-12-07T14:39:55;16.27;;;9.93;;
17441;SDS011;8838;50.144;8.176;2022-12-07T14:42:22;18.13;;;10.40;;
17441;SDS011;8838;50.144;8.176;2022-12-07T14:44:54;9.20;;;4.77;;
17441;SDS011;8838;50.144;8.176;2022-12-07T14:47:21;26.20;;;17.10;;
17441;SDS011;8838;50.144;8.176;2022-12-07T14:49:48;10.90;;;6.90;;
17441;SDS011;8838;50.144;8.176;2022-12-07T14:52:16;7.30;;;3.17;;
17441;SDS011;8838;50.144;8.176;2022-12-07T14:54:46;31.43;;;24.10;;
17441;SDS011;8838;50.144;8.176;2022-12-07T14:57:13;8.40;;;6.13;;
17441;SDS011;8838;50.144;8.176;2022-12-07T14:59:40;10.00;;;3.60;;
17441;SDS011;8838;50.144;8.176;2022-12-07T15:02:11;8.87;;;3.90;;
17441;SDS011;8838;50.144;8.176;2022-12-07T15:04:39;8.37;;;3.20;;
17441;SDS011;8838;50.144;8.176;2022-12-07T15:07:09;8.73;;;3.40;;
17441;SDS011;8838;50.144;8.176;2022-12-07T15:09:40;8.90;;;2.80;;
17441;SDS011;8838;50.144;8.176;2022-12-07T15:12:08;10.67;;;6.70;;
17441;SDS011;8838;50.144;8.176;2022-12-07T15:14:35;15.10;;;10.30;;
17441;SDS011;8838;50.144;8.176;2022-12-07T15:17:02;7.30;;;2.57;;
17441;SDS011;8838;50.144;8.176;2022-12-07T15:19:30;5.67;;;3.20;;
17441;SDS011;8838;50.144;8.176;2022-12-07T15:21:59;9.23;;;2.40;;
17441;SDS011;8838;50.144;8.176;2022-12-07T15:24:26;6.00;;;2.83;;
17441;SDS011;8838;50.144;8.176;2022-12-07T15:26:54;10.67;;;2.50;;